Terminal Aerodrome Forecast
Issued by NWS Wilmington, OH

Current Version | Previous Version | Text Only | Print | Product List | Glossary Off
Versions: 1 2 3 4 5 6 7 8 9 10 11 12 13 14 15 16 17 18 19 20 21 22 23 24 25

370
FTUS41 KILN 270256 AAA
TAFCMH
TAF AMD
KCMH 270256Z 2703/2724 10003KT P6SM FEW150 OVC250
     FM271200 20004KT P6SM VCSH SCT040 OVC200
     FM271500 20009KT P6SM SHRA VCTS SCT040CB OVC080
     FM272200 22006KT P6SM SHRA OVC028=

USA.gov is the U.S. government's official web portal to all federal, state and local government web resources and services.